Time;durP1;ratioP1;P1;durP2;ratioP2;P2;SDS_P1;SDS_P2;PMS_P1;PMS_P2;Temp;Humidity;BMP_temperature;BMP_pressure;BME280_temperature;BME280_humidity;BME280_pressure;Samples;Min_cycle;Max_cycle;Signal;HPM_P1;HPM_P2
2022/09/27 00:00:21;;;;;;;10.20;3.13;;;10.30;99.90;;;;;;5100697;28;20070;-69
2022/09/27 00:02:48;;;;;;;11.85;3.35;;;10.30;99.90;;;;;;5104404;28;20681;-68
2022/09/27 00:05:14;;;;;;;19.40;4.30;;;10.30;99.90;;;;;;5088585;28;20597;-69
2022/09/27 00:07:40;;;;;;;0.90;0.70;;;10.30;99.90;;;;;;5097686;28;20493;-68
2022/09/27 00:10:07;;;;;;;12.93;2.50;;;10.20;99.90;;;;;;5094661;28;20089;-69
2022/09/27 00:12:33;;;;;;;8.32;2.70;;;10.20;99.90;;;;;;5107937;28;20485;-68
2022/09/27 00:15:00;;;;;;;1.45;1.35;;;10.20;99.90;;;;;;5100772;28;20043;-69
2022/09/27 00:17:26;;;;;;;8.45;2.63;;;10.20;99.90;;;;;;5103717;28;20058;-68
2022/09/27 00:19:54;;;;;;;25.02;2.72;;;10.10;99.90;;;;;;5037613;28;1046415;-68
2022/09/27 00:22:21;;;;;;;19.35;2.85;;;10.10;99.90;;;;;;5093306;28;20053;-69
2022/09/27 00:24:47;;;;;;;8.45;2.88;;;10.10;99.90;;;;;;5095231;28;20036;-69
2022/09/27 00:27:12;;;;;;;1.92;0.68;;;10.00;99.90;;;;;;5099309;28;20063;-68
2022/09/27 00:29:38;;;;;;;4.53;1.95;;;10.00;99.90;;;;;;5104365;28;20385;-69
2022/09/27 00:32:04;;;;;;;8.85;2.55;;;10.00;99.90;;;;;;5105275;28;20187;-68
2022/09/27 00:34:29;;;;;;;5.15;2.20;;;10.00;99.90;;;;;;5105417;28;20046;-69
2022/09/27 00:36:55;;;;;;;6.68;2.15;;;9.90;99.90;;;;;;5093140;28;20122;-68
2022/09/27 00:39:21;;;;;;;15.77;3.03;;;9.80;99.90;;;;;;5100617;28;20399;-68
2022/09/27 00:41:46;;;;;;;9.73;2.78;;;9.80;99.90;;;;;;5106038;28;20031;-68
2022/09/27 00:44:24;;;;;;;9.35;2.42;;;9.70;99.90;;;;;;5101410;28;20040;-68
2022/09/27 00:47:30;;;;;;;7.85;2.72;;;9.90;99.90;;;;;;5107623;28;20100;-68
2022/09/27 00:50:22;;;;;;;13.88;2.45;;;9.80;99.90;;;;;;5107088;28;20118;-68
2022/09/27 00:53:14;;;;;;;18.63;4.03;;;9.70;99.90;;;;;;5090559;28;20044;-68
2022/09/27 00:56:02;;;;;;;16.52;3.50;;;9.70;99.90;;;;;;5088977;28;20044;-68
2022/09/27 00:58:31;;;;;;;2.70;1.20;;;9.70;99.90;;;;;;5096663;28;20469;-68
2022/09/27 01:01:03;;;;;;;15.50;2.50;;;9.60;99.90;;;;;;5095038;28;20454;-68
2022/09/27 01:03:50;;;;;;;1.70;1.30;;;9.50;99.90;;;;;;5096247;28;20512;-68
2022/09/27 01:06:19;;;;;;;1.17;0.77;;;9.60;99.90;;;;;;5107861;28;20047;-69
2022/09/27 01:08:45;;;;;;;8.88;0.80;;;9.50;99.90;;;;;;5102704;28;20887;-68
2022/09/27 01:11:41;;;;;;;6.72;2.42;;;9.50;99.90;;;;;;5106846;28;20039;-68
2022/09/27 01:14:17;;;;;;;3.08;1.35;;;9.50;99.90;;;;;;5096160;28;20044;-68
2022/09/27 01:17:25;;;;;;;11.57;3.00;;;9.50;99.90;;;;;;5107504;28;20044;-68
2022/09/27 01:20:11;;;;;;;10.55;2.90;;;9.60;99.90;;;;;;5103685;28;20059;-68
2022/09/27 01:23:00;;;;;;;10.70;1.90;;;9.60;99.90;;;;;;5103381;28;20092;-66
2022/09/27 01:25:51;;;;;;;11.90;2.20;;;9.60;99.90;;;;;;5096977;28;20058;-68
2022/09/27 01:28:35;;;;;;;7.00;1.98;;;9.60;99.90;;;;;;5105352;28;20090;-68
2022/09/27 01:31:06;;;;;;;3.25;1.52;;;9.60;99.90;;;;;;5102677;28;20076;-68
2022/09/27 01:33:37;;;;;;;2.63;0.52;;;9.60;99.90;;;;;;5101956;28;20040;-68
2022/09/27 01:36:30;;;;;;;9.88;2.03;;;9.50;99.90;;;;;;5104868;28;20430;-68
2022/09/27 01:39:08;;;;;;;0.57;0.52;;;9.50;99.90;;;;;;5099024;28;20617;-68
2022/09/27 01:42:01;;;;;;;0.40;0.40;;;9.50;99.90;;;;;;5101509;28;20092;-68
2022/09/27 01:44:38;;;;;;;5.35;1.83;;;9.40;99.90;;;;;;5106905;28;20055;-68
2022/09/27 01:47:11;;;;;;;6.43;1.05;;;9.40;99.90;;;;;;5099697;28;20048;-68
2022/09/27 01:49:49;;;;;;;0.30;0.30;;;9.30;99.90;;;;;;5079156;28;20053;-68
2022/09/27 01:52:20;;;;;;;5.78;2.05;;;9.30;99.90;;;;;;5107170;28;20047;-68
2022/09/27 01:54:51;;;;;;;2.15;0.50;;;9.30;99.90;;;;;;5104185;28;20086;-68
2022/09/27 01:57:23;;;;;;;3.10;1.27;;;9.20;99.90;;;;;;5105481;28;20105;-68
2022/09/27 01:59:55;;;;;;;14.77;2.50;;;9.30;99.90;;;;;;5106273;28;20046;-68
2022/09/27 02:02:25;;;;;;;0.20;0.20;;;9.30;99.90;;;;;;5108261;28;20069;-68
2022/09/27 02:04:57;;;;;;;2.40;0.32;;;9.30;99.90;;;;;;5106844;28;20035;-68
2022/09/27 02:07:35;;;;;;;0.40;0.40;;;9.30;99.90;;;;;;5108289;28;20047;-68
2022/09/27 02:10:09;;;;;;;8.77;2.83;;;9.30;99.90;;;;;;5106317;28;20398;-69
2022/09/27 02:12:42;;;;;;;11.75;2.55;;;9.30;99.90;;;;;;5096457;28;20044;-68
2022/09/27 02:15:13;;;;;;;12.13;1.67;;;9.30;99.90;;;;;;5104580;28;20086;-68
2022/09/27 02:18:04;;;;;;;5.60;1.45;;;9.30;99.90;;;;;;5068874;28;20090;-68
2022/09/27 02:20:56;;;;;;;9.80;1.95;;;9.40;99.90;;;;;;5096106;28;20119;-69
2022/09/27 02:23:31;;;;;;;8.60;2.38;;;9.40;99.90;;;;;;5105335;28;20044;-69
2022/09/27 02:26:26;;;;;;;1.02;0.68;;;9.50;99.90;;;;;;5101626;28;20035;-69
2022/09/27 02:29:04;;;;;;;11.00;2.08;;;9.40;99.90;;;;;;5096653;28;20059;-69
2022/09/27 02:31:30;;;;;;;9.23;1.60;;;9.40;99.90;;;;;;5105553;28;20052;-69
2022/09/27 02:34:03;;;;;;;0.50;0.50;;;9.50;99.90;;;;;;5100694;28;20046;-69
2022/09/27 02:36:29;;;;;;;7.55;1.80;;;9.50;99.90;;;;;;5107831;28;20055;-69
2022/09/27 02:38:55;;;;;;;6.60;1.65;;;9.50;99.90;;;;;;5105458;28;20032;-69
2022/09/27 02:41:22;;;;;;;5.63;2.15;;;9.50;99.90;;;;;;5094949;28;20047;-69
2022/09/27 02:43:53;;;;;;;7.75;1.70;;;9.50;99.90;;;;;;5092620;28;20075;-69
2022/09/27 02:46:44;;;;;;;1.65;1.15;;;9.50;99.90;;;;;;5095652;28;20416;-69
2022/09/27 02:49:34;;;;;;;4.00;1.63;;;9.50;99.90;;;;;;5105280;28;20040;-69
2022/09/27 02:52:26;;;;;;;13.48;2.40;;;9.50;99.90;;;;;;5105682;28;20096;-69
2022/09/27 02:54:55;;;;;;;8.07;1.90;;;9.50;99.90;;;;;;5095287;28;20043;-69
2022/09/27 02:57:37;;;;;;;6.15;2.67;;;9.50;99.90;;;;;;5094278;28;20521;-69
2022/09/27 03:00:11;;;;;;;9.00;1.70;;;9.50;99.90;;;;;;5107465;28;20134;-69
2022/09/27 03:02:58;;;;;;;0.57;0.32;;;9.70;99.90;;;;;;5104923;28;20042;-68
2022/09/27 03:05:38;;;;;;;1.23;0.45;;;9.40;99.90;;;;;;5100399;28;20036;-69
2022/09/27 03:08:04;;;;;;;6.45;1.45;;;9.40;99.90;;;;;;5106344;28;20048;-68
2022/09/27 03:10:29;;;;;;;3.95;0.93;;;9.40;99.90;;;;;;5094827;28;20130;-69
2022/09/27 03:12:57;;;;;;;4.55;1.15;;;9.40;99.90;;;;;;5101762;28;20454;-69
2022/09/27 03:15:23;;;;;;;1.83;0.95;;;9.40;99.90;;;;;;5107669;28;20055;-69
2022/09/27 03:17:48;;;;;;;7.13;1.85;;;9.40;99.90;;;;;;5107688;28;20032;-69
2022/09/27 03:20:14;;;;;;;2.25;0.63;;;9.40;99.90;;;;;;5109594;27;20055;-69
2022/09/27 03:22:41;;;;;;;0.40;0.20;;;9.40;99.90;;;;;;5097264;28;20040;-69
2022/09/27 03:25:07;;;;;;;1.95;0.35;;;9.30;99.90;;;;;;5095668;28;20050;-69
2022/09/27 03:27:33;;;;;;;7.40;1.83;;;9.30;99.90;;;;;;5104736;28;20054;-69
2022/09/27 03:29:58;;;;;;;6.00;2.00;;;9.30;99.90;;;;;;5096355;28;20043;-68
2022/09/27 03:32:26;;;;;;;3.20;0.65;;;9.40;99.90;;;;;;5090841;28;20840;-68
2022/09/27 03:34:53;;;;;;;7.78;1.25;;;9.30;99.90;;;;;;5090861;28;20485;-68
2022/09/27 03:37:20;;;;;;;8.05;1.58;;;9.30;99.90;;;;;;5083869;28;20492;-69
2022/09/27 03:39:46;;;;;;;7.13;2.13;;;9.30;99.90;;;;;;5101465;28;20055;-68
2022/09/27 03:42:12;;;;;;;3.28;1.55;;;9.30;99.90;;;;;;5110032;28;20119;-68
2022/09/27 03:44:37;;;;;;;17.90;2.10;;;9.30;99.90;;;;;;5110125;28;20520;-68
2022/09/27 03:47:03;;;;;;;11.88;2.53;;;9.30;99.90;;;;;;5102462;28;20134;-68
2022/09/27 03:49:29;;;;;;;2.15;1.52;;;9.30;99.90;;;;;;5106515;28;20039;-68
2022/09/27 03:51:54;;;;;;;3.47;1.05;;;9.30;99.90;;;;;;5105849;28;20139;-68
2022/09/27 03:54:20;;;;;;;2.83;0.45;;;9.30;99.90;;;;;;5103992;28;20042;-68
2022/09/27 03:56:45;;;;;;;2.28;0.88;;;9.20;99.90;;;;;;5094278;28;20112;-68
2022/09/27 03:59:11;;;;;;;4.40;1.23;;;9.20;99.90;;;;;;5085549;28;20059;-68
2022/09/27 04:01:37;;;;;;;0.88;0.73;;;9.20;99.90;;;;;;5103023;28;20040;-68
2022/09/27 04:04:03;;;;;;;2.63;1.25;;;9.20;99.90;;;;;;5103634;27;20044;-68
2022/09/27 04:06:29;;;;;;;0.40;0.40;;;9.20;99.90;;;;;;5104465;28;20131;-68
2022/09/27 04:08:55;;;;;;;10.63;1.42;;;9.10;99.90;;;;;;5102665;28;20096;-68
2022/09/27 04:11:22;;;;;;;6.05;0.60;;;9.10;99.90;;;;;;5104376;28;20028;-68
2022/09/27 04:13:48;;;;;;;3.70;1.50;;;9.10;99.90;;;;;;5098825;27;20519;-68
2022/09/27 04:16:15;;;;;;;7.15;1.42;;;9.00;99.90;;;;;;5105591;28;20210;-68
2022/09/27 04:18:41;;;;;;;2.83;0.52;;;9.00;99.90;;;;;;5105275;27;20047;-68
2022/09/27 04:21:08;;;;;;;13.75;2.10;;;9.00;99.90;;;;;;5101588;28;20059;-68
2022/09/27 04:23:34;;;;;;;1.65;0.60;;;8.90;99.90;;;;;;5106853;28;20051;-68
2022/09/27 04:25:59;;;;;;;10.45;1.33;;;8.90;99.90;;;;;;5100476;28;20397;-68
2022/09/27 04:28:26;;;;;;;4.43;1.30;;;9.00;99.90;;;;;;5096363;28;20039;-68
2022/09/27 04:30:53;;;;;;;2.28;0.57;;;8.90;99.90;;;;;;5108179;28;20062;-68
2022/09/27 04:33:18;;;;;;;4.72;1.48;;;8.90;99.90;;;;;;5099814;28;20165;-68
2022/09/27 04:38:28;;;;;;;7.88;1.40;;;8.90;99.90;;;;;;5104792;28;20043;-68
2022/09/27 04:40:54;;;;;;;3.75;1.15;;;8.90;99.90;;;;;;5106938;28;20047;-68
2022/09/27 04:43:19;;;;;;;0.63;0.60;;;9.00;99.90;;;;;;5105544;28;20044;-68
2022/09/27 04:45:45;;;;;;;8.88;1.63;;;8.90;99.90;;;;;;5108118;28;20127;-68
2022/09/27 04:48:11;;;;;;;7.28;2.17;;;8.90;99.90;;;;;;5101589;28;20078;-68
2022/09/27 04:50:36;;;;;;;7.57;2.25;;;8.90;99.90;;;;;;5097518;28;20048;-68
2022/09/27 04:53:02;;;;;;;2.50;0.80;;;8.90;99.90;;;;;;5104110;28;20040;-68
2022/09/27 04:55:28;;;;;;;6.45;1.48;;;9.00;99.90;;;;;;5105038;28;20036;-68
2022/09/27 04:57:54;;;;;;;3.55;0.45;;;8.90;99.90;;;;;;5108209;28;20826;-68
2022/09/27 05:00:20;;;;;;;1.00;0.75;;;8.90;99.90;;;;;;5109188;28;20527;-68
2022/09/27 05:02:47;;;;;;;4.07;1.75;;;9.00;99.90;;;;;;5101478;28;20361;-68
2022/09/27 05:05:16;;;;;;;0.82;0.82;;;8.90;99.90;;;;;;5091013;28;20045;-68
2022/09/27 05:07:41;;;;;;;2.92;0.70;;;8.90;99.90;;;;;;5097531;28;20032;-68
2022/09/27 05:10:08;;;;;;;0.55;0.55;;;8.90;99.90;;;;;;5096752;28;20483;-68
2022/09/27 05:12:34;;;;;;;10.07;1.50;;;8.90;99.90;;;;;;5106643;28;20089;-68
2022/09/27 05:15:00;;;;;;;0.60;0.47;;;9.00;99.90;;;;;;5102384;28;20047;-68
2022/09/27 05:17:26;;;;;;;4.82;1.63;;;8.90;99.90;;;;;;5105308;28;20040;-68
2022/09/27 05:19:52;;;;;;;1.05;0.82;;;8.90;99.90;;;;;;5108333;28;20048;-68
2022/09/27 05:22:18;;;;;;;0.85;0.60;;;8.90;99.90;;;;;;5107906;28;20043;-68
2022/09/27 05:24:44;;;;;;;0.20;0.20;;;8.80;99.90;;;;;;5100005;28;20489;-68
2022/09/27 05:27:19;;;;;;;6.93;1.52;;;8.90;99.90;;;;;;5106213;28;20051;-68
2022/09/27 05:29:45;;;;;;;0.52;0.52;;;8.90;99.90;;;;;;5109208;28;20040;-68
2022/09/27 05:32:11;;;;;;;1.50;0.75;;;8.90;99.90;;;;;;5102261;28;20085;-68
2022/09/27 05:34:37;;;;;;;0.95;0.40;;;8.90;99.90;;;;;;5108285;28;20043;-68
2022/09/27 05:37:03;;;;;;;3.33;0.50;;;8.80;99.90;;;;;;5102064;28;20047;-68
2022/09/27 05:39:28;;;;;;;0.35;0.32;;;8.80;99.90;;;;;;5095560;28;20036;-68
2022/09/27 05:41:57;;;;;;;8.15;1.77;;;8.80;99.90;;;;;;5103561;28;20031;-68
2022/09/27 05:44:24;;;;;;;3.38;1.60;;;8.80;99.90;;;;;;5108588;28;20051;-68
2022/09/27 05:46:50;;;;;;;9.00;1.65;;;8.90;99.90;;;;;;5101963;28;20084;-68
2022/09/27 05:49:16;;;;;;;0.47;0.47;;;8.90;99.90;;;;;;5103138;28;20252;-68
2022/09/27 05:51:42;;;;;;;2.15;1.92;;;8.90;99.90;;;;;;5094290;28;20485;-68
2022/09/27 05:54:08;;;;;;;6.40;0.45;;;8.90;99.90;;;;;;5099652;28;20081;-68
2022/09/27 05:56:33;;;;;;;7.63;1.83;;;8.80;99.90;;;;;;5099431;28;20051;-68
2022/09/27 05:58:59;;;;;;;5.22;1.92;;;8.80;99.90;;;;;;5102232;28;20040;-68
2022/09/27 06:01:26;;;;;;;8.45;2.17;;;8.90;99.90;;;;;;5104963;28;20036;-68
2022/09/27 06:03:53;;;;;;;0.50;0.50;;;8.90;99.90;;;;;;5105633;28;20055;-68
2022/09/27 06:06:21;;;;;;;5.78;1.83;;;8.90;99.90;;;;;;5102086;28;20055;-68
2022/09/27 06:08:48;;;;;;;1.80;0.60;;;8.90;99.90;;;;;;5094738;28;20538;-68
2022/09/27 06:11:14;;;;;;;3.95;1.60;;;8.90;99.90;;;;;;5105011;28;20520;-68
2022/09/27 06:13:40;;;;;;;1.65;0.98;;;8.90;99.90;;;;;;5103869;28;20052;-68
2022/09/27 06:16:08;;;;;;;11.90;4.38;;;8.90;99.90;;;;;;5105366;28;20048;-68
2022/09/27 06:18:34;;;;;;;9.20;3.05;;;9.00;99.90;;;;;;5094359;28;20063;-68
2022/09/27 06:21:01;;;;;;;10.38;1.58;;;9.00;99.90;;;;;;5097109;28;20051;-68
2022/09/27 06:23:30;;;;;;;5.13;2.38;;;9.00;99.90;;;;;;5101056;28;20067;-68
2022/09/27 06:26:01;;;;;;;0.80;0.80;;;9.00;99.90;;;;;;5100015;28;20051;-68
2022/09/27 06:28:27;;;;;;;1.10;0.93;;;9.00;99.90;;;;;;5100935;28;20390;-68
2022/09/27 06:30:53;;;;;;;1.40;1.05;;;9.00;99.90;;;;;;5107628;28;20051;-68
2022/09/27 06:33:19;;;;;;;10.15;1.85;;;9.00;99.90;;;;;;5100069;28;20484;-68
2022/09/27 06:35:45;;;;;;;2.53;0.95;;;9.00;99.90;;;;;;5096259;28;20092;-68
2022/09/27 06:38:14;;;;;;;8.35;2.38;;;9.00;99.90;;;;;;5094934;28;20051;-68
2022/09/27 06:40:44;;;;;;;10.25;2.60;;;9.20;99.90;;;;;;5101793;28;20048;-68
2022/09/27 06:43:11;;;;;;;8.85;1.60;;;9.10;99.90;;;;;;5101992;28;20602;-68
2022/09/27 06:45:37;;;;;;;7.10;1.98;;;9.10;99.90;;;;;;5099248;28;20043;-68
2022/09/27 06:48:09;;;;;;;19.77;2.67;;;9.20;99.90;;;;;;5100477;28;20048;-68
2022/09/27 06:50:36;;;;;;;0.65;0.45;;;9.20;99.90;;;;;;5104095;28;20123;-68
2022/09/27 06:53:05;;;;;;;8.98;1.00;;;9.10;99.90;;;;;;5097322;28;20101;-68
2022/09/27 06:55:31;;;;;;;5.05;0.93;;;9.10;99.90;;;;;;5103140;28;20047;-68
2022/09/27 07:00:45;;;;;;;7.05;2.22;;;9.00;99.90;;;;;;5105024;28;20103;-68
2022/09/27 07:03:11;;;;;;;19.83;3.03;;;9.20;99.90;;;;;;5094862;28;20467;-68
2022/09/27 07:05:37;;;;;;;2.22;1.52;;;9.30;99.90;;;;;;5105147;27;20285;-68
2022/09/27 07:08:03;;;;;;;0.80;0.80;;;9.40;99.90;;;;;;5098608;28;20051;-68
2022/09/27 07:10:33;;;;;;;7.50;1.75;;;9.50;99.90;;;;;;5105257;28;20047;-68
2022/09/27 07:13:06;;;;;;;5.43;1.10;;;9.50;99.90;;;;;;5099667;28;20453;-68
2022/09/27 07:15:37;;;;;;;6.22;2.08;;;9.60;99.90;;;;;;5094585;28;20449;-68
2022/09/27 07:18:04;;;;;;;12.45;2.20;;;9.70;99.90;;;;;;5106187;28;20058;-68
2022/09/27 07:20:35;;;;;;;4.18;1.55;;;9.80;99.90;;;;;;5109785;27;20047;-68
2022/09/27 07:23:03;;;;;;;1.55;0.88;;;9.90;99.90;;;;;;5094318;28;20048;-68
2022/09/27 07:25:29;;;;;;;2.72;1.13;;;9.90;99.90;;;;;;5094021;28;20115;-68
2022/09/27 07:28:03;;;;;;;10.63;2.13;;;9.90;99.90;;;;;;5102098;28;20130;-68
2022/09/27 07:30:29;;;;;;;3.60;1.02;;;10.00;99.90;;;;;;5092113;28;20079;-68
2022/09/27 07:32:59;;;;;;;5.15;2.05;;;10.20;99.90;;;;;;5100770;28;20096;-68
2022/09/27 07:35:26;;;;;;;7.90;1.85;;;10.20;99.90;;;;;;5096441;28;20511;-68
2022/09/27 07:37:52;;;;;;;3.78;1.42;;;10.30;99.90;;;;;;5097783;28;21364;-68
2022/09/27 07:40:18;;;;;;;4.10;1.52;;;10.50;99.90;;;;;;5104023;28;20055;-69
2022/09/27 07:42:46;;;;;;;2.15;1.33;;;10.60;99.90;;;;;;5105123;28;20526;-68
2022/09/27 07:45:12;;;;;;;4.43;2.10;;;10.70;99.90;;;;;;5090533;28;20044;-68
2022/09/27 07:47:39;;;;;;;7.55;1.50;;;10.80;99.90;;;;;;5101699;28;20050;-68
2022/09/27 07:50:06;;;;;;;1.85;0.70;;;10.80;99.90;;;;;;5101582;28;20061;-69
2022/09/27 07:52:38;;;;;;;4.55;1.73;;;10.90;99.90;;;;;;5096871;28;20544;-68
2022/09/27 07:55:05;;;;;;;6.03;1.85;;;11.10;99.90;;;;;;5104913;28;20035;-69
2022/09/27 07:57:31;;;;;;;2.67;0.75;;;11.10;99.90;;;;;;5094426;28;20070;-69
2022/09/27 07:59:56;;;;;;;6.50;2.05;;;11.30;99.90;;;;;;5107008;27;20330;-68
2022/09/27 08:02:23;;;;;;;1.98;1.05;;;11.40;99.90;;;;;;5102802;27;20043;-68
2022/09/27 08:04:48;;;;;;;15.02;2.63;;;11.40;99.90;;;;;;5108304;28;20043;-68
2022/09/27 08:07:14;;;;;;;7.13;2.95;;;11.50;99.90;;;;;;5092278;28;20055;-69
2022/09/27 08:09:40;;;;;;;5.50;1.48;;;11.50;99.90;;;;;;5094857;28;20398;-68
2022/09/27 08:12:07;;;;;;;19.35;1.80;;;11.60;99.90;;;;;;5093514;28;20856;-68
2022/09/27 08:14:32;;;;;;;0.75;0.60;;;11.50;99.90;;;;;;5102315;28;20063;-68
2022/09/27 08:16:58;;;;;;;4.70;1.33;;;11.60;99.90;;;;;;5108374;28;20491;-69
2022/09/27 08:19:25;;;;;;;7.72;1.83;;;11.50;99.90;;;;;;5102996;28;20054;-68
2022/09/27 08:21:53;;;;;;;8.00;2.30;;;11.40;99.90;;;;;;5096122;28;20382;-69
2022/09/27 08:24:19;;;;;;;;;;;11.40;99.90;;;;;;5095462;28;20570;-69
2022/09/27 08:26:45;;;;;;;4.70;3.72;;;11.50;99.90;;;;;;5095608;28;19927;-69
2022/09/27 08:29:11;;;;;;;1.98;1.23;;;11.40;99.90;;;;;;5092007;28;20040;-69
2022/09/27 08:31:37;;;;;;;2.67;1.98;;;11.60;99.90;;;;;;5098172;28;20122;-69
2022/09/27 08:34:03;;;;;;;3.28;1.58;;;11.70;99.90;;;;;;5094341;28;20516;-69
2022/09/27 08:36:30;;;;;;;5.53;2.88;;;11.90;99.90;;;;;;5109094;28;20104;-68
2022/09/27 08:38:58;;;;;;;3.08;1.13;;;12.00;99.90;;;;;;5098306;28;20061;-69
2022/09/27 08:41:56;;;;;;;6.37;2.63;;;12.10;99.90;;;;;;5105418;28;20055;-72
2022/09/27 08:44:40;;;;;;;5.88;1.33;;;12.30;99.90;;;;;;5104212;28;20051;-76
2022/09/27 08:47:24;;;;;;;11.30;7.72;;;12.40;99.90;;;;;;5104359;28;20031;-69
2022/09/27 08:50:15;;;;;;;7.78;1.42;;;12.40;99.90;;;;;;5098740;28;20082;-69
2022/09/27 08:52:54;;;;;;;3.50;1.55;;;12.50;99.90;;;;;;5107433;28;20043;-69
2022/09/27 08:55:31;;;;;;;4.47;1.63;;;12.60;99.90;;;;;;5100771;28;20035;-69
2022/09/27 08:57:58;;;;;;;3.47;1.67;;;12.80;99.90;;;;;;5103936;28;21089;-69
2022/09/27 09:00:26;;;;;;;6.63;2.15;;;12.80;99.90;;;;;;5107316;28;20413;-69
2022/09/27 09:02:55;;;;;;;4.68;1.38;;;13.00;99.90;;;;;;5095687;27;20044;-69
2022/09/27 09:05:30;;;;;;;4.43;1.60;;;13.20;99.90;;;;;;5107260;28;20060;-69
2022/09/27 09:08:26;;;;;;;3.58;1.63;;;13.30;99.90;;;;;;5106474;28;20412;-69
2022/09/27 09:13:50;;;;;;;3.72;1.38;;;13.40;99.90;;;;;;5097646;28;20514;-69
2022/09/27 09:16:34;;;;;;;2.47;1.35;;;13.60;99.90;;;;;;5102812;28;20123;-69
2022/09/27 09:19:09;;;;;;;7.95;1.42;;;13.70;99.90;;;;;;5107048;28;20063;-69
2022/09/27 09:21:51;;;;;;;2.47;1.25;;;13.70;99.90;;;;;;5105475;28;21441;-67
2022/09/27 09:24:27;;;;;;;3.58;1.20;;;13.80;99.90;;;;;;5096807;28;20044;-68
2022/09/27 09:26:52;;;;;;;3.60;1.00;;;13.90;99.90;;;;;;5099210;28;20051;-67
2022/09/27 09:29:53;;;;;;;6.35;1.45;;;14.10;99.90;;;;;;5097906;28;20052;-68
2022/09/27 09:32:29;;;;;;;9.55;1.20;;;14.40;99.90;;;;;;5076524;28;20139;-68
2022/09/27 09:35:11;;;;;;;2.38;0.93;;;14.60;99.90;;;;;;5103370;28;20114;-68
2022/09/27 09:37:46;;;;;;;1.92;1.35;;;14.70;99.90;;;;;;5100343;28;20044;-68
2022/09/27 09:40:23;;;;;;;4.00;1.20;;;14.90;99.90;;;;;;5101213;28;20118;-68
2022/09/27 09:43:01;;;;;;;1.42;1.25;;;15.00;99.90;;;;;;5101250;27;20512;-68
2022/09/27 09:45:32;;;;;;;4.18;1.20;;;15.30;99.90;;;;;;5096176;28;20131;-69
2022/09/27 09:48:18;;;;;;;2.50;1.27;;;15.40;99.90;;;;;;5097626;28;20044;-68
2022/09/27 09:50:50;;;;;;;3.78;1.73;;;15.30;99.90;;;;;;5100311;28;20048;-69
2022/09/27 09:53:57;;;;;;;2.08;0.98;;;15.40;99.90;;;;;;5091632;28;20062;-68
2022/09/27 09:56:28;;;;;;;0.75;0.70;;;15.40;99.90;;;;;;5096235;28;20052;-68
2022/09/27 09:58:59;;;;;;;3.40;0.90;;;15.30;99.90;;;;;;5107752;28;20469;-69
2022/09/27 10:01:34;;;;;;;3.15;0.80;;;15.20;99.90;;;;;;5096118;28;20089;-68
2022/09/27 10:04:01;;;;;;;2.90;1.17;;;15.20;99.90;;;;;;5101060;28;20501;-69
2022/09/27 10:06:29;;;;;;;5.30;1.05;;;15.00;99.90;;;;;;5095427;28;20043;-68
2022/09/27 10:08:55;;;;;;;5.22;1.90;;;15.00;99.90;;;;;;5099414;28;20055;-67
2022/09/27 10:11:35;;;;;;;5.05;2.20;;;14.90;99.90;;;;;;5091691;28;20047;-68
2022/09/27 10:14:01;;;;;;;6.78;1.88;;;14.80;99.90;;;;;;5094374;28;20060;-68
2022/09/27 10:16:28;;;;;;;8.95;1.58;;;14.80;99.90;;;;;;5090860;28;20044;-68
2022/09/27 10:18:59;;;;;;;2.42;1.50;;;15.00;99.90;;;;;;5091771;28;20036;-68
2022/09/27 10:21:29;;;;;;;9.13;1.38;;;15.10;99.90;;;;;;5102064;28;20155;-68
2022/09/27 10:24:13;;;;;;;2.33;1.08;;;14.90;99.90;;;;;;5100755;28;20051;-68
2022/09/27 10:26:42;;;;;;;7.20;2.20;;;15.00;99.90;;;;;;5098486;28;20400;-68
2022/09/27 10:29:33;;;;;;;2.30;1.27;;;14.80;99.90;;;;;;5101941;27;20051;-67
2022/09/27 10:32:03;;;;;;;5.78;1.88;;;14.70;99.90;;;;;;5100141;28;20039;-68
2022/09/27 10:34:39;;;;;;;8.75;2.47;;;14.50;99.90;;;;;;5109170;28;20527;-68
2022/09/27 10:37:11;;;;;;;8.80;2.47;;;14.30;99.90;;;;;;5110379;28;20040;-67
2022/09/27 10:39:40;;;;;;;8.10;3.17;;;14.30;99.90;;;;;;5109245;28;20039;-67
2022/09/27 10:42:33;;;;;;;3.85;1.65;;;14.20;99.90;;;;;;5097966;28;20044;-67
2022/09/27 10:45:21;;;;;;;4.90;1.42;;;14.30;99.90;;;;;;5098467;28;20123;-67
2022/09/27 10:47:49;;;;;;;4.82;0.98;;;14.10;99.90;;;;;;5101627;28;20124;-67
2022/09/27 10:50:20;;;;;;;5.85;1.95;;;14.00;99.90;;;;;;5108694;28;20055;-69
2022/09/27 10:52:47;;;;;;;1.45;0.98;;;13.70;99.90;;;;;;5104616;28;20400;-69
2022/09/27 10:55:22;;;;;;;4.07;0.77;;;13.50;99.90;;;;;;5107840;28;20868;-68
2022/09/27 10:57:51;;;;;;;5.68;1.23;;;13.30;99.90;;;;;;5104344;28;20093;-68
2022/09/27 11:00:23;;;;;;;2.78;1.08;;;13.20;99.90;;;;;;5101006;28;20105;-68
2022/09/27 11:02:54;;;;;;;1.50;0.93;;;13.10;99.90;;;;;;5101534;27;20043;-69
2022/09/27 11:05:25;;;;;;;1.52;0.52;;;13.00;99.90;;;;;;5102634;28;20062;-68
2022/09/27 11:08:01;;;;;;;2.47;0.50;;;12.80;99.90;;;;;;5101036;28;20119;-68
2022/09/27 11:10:30;;;;;;;1.77;0.68;;;12.70;99.90;;;;;;5101189;28;20472;-68
2022/09/27 11:13:14;;;;;;;1.98;0.60;;;12.50;99.90;;;;;;5103635;28;20079;-68
2022/09/27 11:15:58;;;;;;;0.98;0.65;;;12.40;99.90;;;;;;5103978;28;20047;-68
2022/09/27 11:18:42;;;;;;;1.40;0.60;;;12.30;99.90;;;;;;5106482;28;20431;-68
2022/09/27 11:21:45;;;;;;;3.22;0.80;;;12.30;99.90;;;;;;5104877;28;20105;-68
2022/09/27 11:24:40;;;;;;;2.20;0.80;;;12.30;99.90;;;;;;5094804;28;20048;-67
2022/09/27 11:27:43;;;;;;;0.70;0.70;;;12.40;99.90;;;;;;5101009;28;20069;-67
2022/09/27 11:30:19;;;;;;;2.55;0.60;;;12.50;99.90;;;;;;5109769;28;20188;-67
2022/09/27 11:33:22;;;;;;;2.08;0.70;;;12.50;99.90;;;;;;5110164;28;20044;-67
2022/09/27 11:36:04;;;;;;;2.28;0.77;;;12.70;99.90;;;;;;5098869;28;20039;-67
2022/09/27 11:38:37;;;;;;;1.65;0.85;;;12.70;99.90;;;;;;5102791;28;20043;-67
2022/09/27 11:41:15;;;;;;;3.05;1.13;;;12.80;99.90;;;;;;5108834;27;20043;-68
2022/09/27 11:43:56;;;;;;;4.35;1.33;;;12.70;99.90;;;;;;5099115;28;20039;-68
2022/09/27 11:46:37;;;;;;;0.98;0.85;;;12.90;99.90;;;;;;5104442;28;20052;-68
2022/09/27 11:49:21;;;;;;;2.25;1.02;;;12.90;99.90;;;;;;5104724;28;20050;-69
2022/09/27 11:52:21;;;;;;;1.05;1.05;;;12.80;99.90;;;;;;5103471;28;20126;-69
2022/09/27 11:54:49;;;;;;;2.25;1.13;;;12.70;99.90;;;;;;5086066;28;20047;-68
2022/09/27 11:57:17;;;;;;;;;;;12.70;99.90;;;;;;5110667;28;20043;-68
2022/09/27 12:00:01;;;;;;;;;;;12.70;99.90;;;;;;5098617;28;19962;-68
2022/09/27 12:03:04;;;;;;;2.50;1.00;;;12.70;99.90;;;;;;5099893;28;19920;-67
2022/09/27 12:06:01;;;;;;;6.28;0.90;;;12.80;99.90;;;;;;5095131;28;20093;-67
2022/09/27 12:08:46;;;;;;;3.50;0.75;;;12.80;99.90;;;;;;5097322;28;20114;-67
2022/09/27 12:11:21;;;;;;;2.08;0.50;;;12.90;99.90;;;;;;5104262;28;20044;-67
2022/09/27 12:14:08;;;;;;;2.30;0.93;;;13.00;99.90;;;;;;5101767;28;20785;-67
2022/09/27 12:16:36;;;;;;;2.15;0.50;;;13.20;99.90;;;;;;5104433;28;20035;-67
2022/09/27 12:19:02;;;;;;;0.88;0.60;;;13.20;99.90;;;;;;5101968;28;20497;-67
2022/09/27 12:21:31;;;;;;;2.40;0.77;;;13.20;99.90;;;;;;5106738;28;20071;-67
2022/09/27 12:23:58;;;;;;;1.98;0.80;;;13.20;99.90;;;;;;5109420;27;20473;-68
2022/09/27 12:26:37;;;;;;;0.60;0.60;;;13.20;99.90;;;;;;5100866;28;20119;-67
2022/09/27 12:29:35;;;;;;;1.63;0.60;;;13.40;99.90;;;;;;5109767;28;20039;-67
2022/09/27 12:32:23;;;;;;;0.95;0.63;;;13.40;99.90;;;;;;5091250;28;20046;-67
2022/09/27 12:35:03;;;;;;;1.35;0.57;;;13.50;99.90;;;;;;5092763;28;20067;-67
2022/09/27 12:37:45;;;;;;;0.98;0.90;;;13.50;99.90;;;;;;5093454;28;20054;-67
2022/09/27 12:40:21;;;;;;;0.40;0.40;;;13.50;99.90;;;;;;5097132;28;20531;-67
2022/09/27 12:43:06;;;;;;;2.10;0.77;;;13.60;99.90;;;;;;5100472;28;20058;-67
2022/09/27 12:45:49;;;;;;;0.77;0.60;;;13.70;99.90;;;;;;5104287;28;20050;-68
2022/09/27 12:48:23;;;;;;;1.67;1.05;;;13.60;99.90;;;;;;5107942;28;20043;-67
2022/09/27 12:51:08;;;;;;;2.92;0.90;;;13.50;99.90;;;;;;5097064;28;20887;-67
2022/09/27 12:54:24;;;;;;;1.08;0.82;;;13.60;99.90;;;;;;5101554;28;20130;-67
2022/09/27 12:57:05;;;;;;;4.82;0.80;;;13.60;99.90;;;;;;5073586;28;20059;-67
2022/09/27 13:00:04;;;;;;;2.35;0.95;;;13.50;99.90;;;;;;5103179;28;20051;-67
2022/09/27 13:03:03;;;;;;;3.38;1.50;;;13.50;99.90;;;;;;5105610;28;20043;-67
2022/09/27 13:05:40;;;;;;;1.42;1.10;;;13.60;99.90;;;;;;5095860;28;20048;-67
2022/09/27 13:08:20;;;;;;;3.40;1.60;;;13.80;99.90;;;;;;5101468;28;20109;-67
2022/09/27 13:11:11;;;;;;;3.25;1.50;;;13.70;99.90;;;;;;5101938;28;20515;-67
2022/09/27 13:13:38;;;;;;;6.00;4.25;;;13.70;99.90;;;;;;5097913;28;20040;-67
2022/09/27 13:16:06;;;;;;;1.65;1.15;;;13.70;99.90;;;;;;5099873;28;20039;-67
2022/09/27 13:18:52;;;;;;;1.85;1.30;;;13.70;99.90;;;;;;5102084;28;20105;-68
2022/09/27 13:21:46;;;;;;;7.00;1.15;;;13.60;99.90;;;;;;5102137;28;20500;-68
2022/09/27 13:24:36;;;;;;;2.75;1.10;;;13.40;99.90;;;;;;5095839;27;20036;-67
2022/09/27 13:27:22;;;;;;;1.85;1.10;;;13.20;99.90;;;;;;5097791;28;20044;-67
2022/09/27 13:29:49;;;;;;;2.15;1.10;;;13.00;99.90;;;;;;5098817;28;20126;-67